Time;durP1;ratioP1;P1;durP2;ratioP2;P2;SDS_P1;SDS_P2;PMS_P1;PMS_P2;Temp;Humidity;BMP_temperature;BMP_pressure;BME280_temperature;BME280_humidity;BME280_pressure;Samples;Min_cycle;Max_cycle;Signal;HPM_P1;HPM_P2
2021/12/26 00:00:12;;;;;;;18.58;8.80;;;;;;;;;;5053491;28;20469;-64
2021/12/26 00:02:39;;;;;;;19.02;8.63;;;;;;;;;;5053223;28;20056;-64
2021/12/26 00:05:08;;;;;;;17.92;8.40;;;;;;;;;;5053203;28;20053;-64
2021/12/26 00:07:36;;;;;;;16.55;8.77;;;;;;;;;;5053106;28;20045;-66
2021/12/26 00:10:04;;;;;;;17.55;8.38;;;;;;;;;;5053145;28;20049;-64
2021/12/26 00:12:31;;;;;;;16.38;8.95;;;;;;;;;;5053075;28;20049;-64
2021/12/26 00:14:58;;;;;;;17.52;9.40;;;;;;;;;;5053093;28;20417;-65
2021/12/26 00:17:26;;;;;;;17.88;9.02;;;;;;;;;;5052897;28;20053;-63
2021/12/26 00:19:53;;;;;;;17.92;8.82;;;;;;;;;;5052939;28;20056;-63
2021/12/26 00:22:20;;;;;;;18.25;9.52;;;;;;;;;;5052848;28;20064;-63
2021/12/26 00:24:47;;;;;;;17.02;8.55;;;;;;;;;;5052992;28;20092;-65
2021/12/26 00:27:14;;;;;;;16.83;8.77;;;;;;;;;;5052986;28;20059;-62
2021/12/26 00:29:41;;;;;;;19.88;9.80;;;;;;;;;;5052968;28;20441;-63
2021/12/26 00:32:09;;;;;;;19.50;9.40;;;;;;;;;;5052617;28;20055;-63
2021/12/26 00:34:37;;;;;;;18.65;9.65;;;;;;;;;;5052795;28;20048;-63
2021/12/26 00:37:06;;;;;;;19.30;8.90;;;;;;;;;;5052613;28;20053;-62
2021/12/26 00:39:34;;;;;;;18.15;9.20;;;;;;;;;;5052719;28;20071;-62
2021/12/26 00:42:01;;;;;;;22.40;9.95;;;;;;;;;;5052573;28;20052;-63
2021/12/26 00:44:28;;;;;;;19.33;9.35;;;;;;;;;;5052506;28;20059;-63
2021/12/26 00:46:55;;;;;;;17.13;9.40;;;;;;;;;;5052553;28;20056;-63
2021/12/26 00:49:22;;;;;;;16.67;9.10;;;;;;;;;;5052257;28;20544;-63
2021/12/26 00:51:51;;;;;;;17.77;8.80;;;;;;;;;;5052190;28;20051;-63
2021/12/26 00:54:20;;;;;;;19.63;9.00;;;;;;;;;;5052332;28;20053;-63
2021/12/26 00:56:47;;;;;;;18.20;9.15;;;;;;;;;;5052335;28;20410;-63
2021/12/26 00:59:14;;;;;;;18.60;9.02;;;;;;;;;;5051992;28;20053;-63
2021/12/26 01:01:41;;;;;;;16.85;8.65;;;;;;;;;;5052352;28;20517;-63
2021/12/26 01:04:11;;;;;;;19.58;9.35;;;;;;;;;;5052100;28;20395;-63
2021/12/26 01:06:38;;;;;;;19.83;10.57;;;;;;;;;;5052540;28;20057;-63
2021/12/26 01:09:11;;;;;;;20.10;10.05;;;;;;;;;;5051238;28;20056;-63
2021/12/26 01:11:41;;;;;;;17.63;9.05;;;;;;;;;;5052426;28;20052;-63
2021/12/26 01:14:10;;;;;;;20.13;9.80;;;;;;;;;;5052686;28;20118;-63
2021/12/26 01:16:38;;;;;;;20.80;11.50;;;;;;;;;;5052368;28;20775;-63
2021/12/26 01:19:11;;;;;;;19.27;10.20;;;;;;;;;;5051799;28;20135;-63
2021/12/26 01:21:38;;;;;;;19.90;10.10;;;;;;;;;;5052301;28;20053;-63
2021/12/26 01:24:09;;;;;;;15.25;8.45;;;;;;;;;;5051648;28;20057;-62
2021/12/26 01:26:35;;;;;;;;;;;;;;;;;;5052363;28;20053;-62
2021/12/26 01:29:04;;;;;;;17.23;9.65;;;;;;;;;;5051624;28;19996;-62
2021/12/26 01:31:31;;;;;;;17.48;9.45;;;;;;;;;;5051786;28;20127;-62
2021/12/26 01:34:01;;;;;;;17.63;9.20;;;;;;;;;;5052278;28;20525;-62
2021/12/26 01:36:29;;;;;;;18.70;9.48;;;;;;;;;;5051820;28;20045;-63
2021/12/26 01:38:58;;;;;;;18.35;8.90;;;;;;;;;;5051612;28;20045;-63
2021/12/26 01:41:28;;;;;;;17.15;9.55;;;;;;;;;;5051861;28;20047;-63
2021/12/26 01:44:03;;;;;;;15.17;9.10;;;;;;;;;;5051791;28;20041;-63
2021/12/26 01:46:30;;;;;;;17.88;9.27;;;;;;;;;;5052000;28;20532;-63
2021/12/26 01:49:07;;;;;;;17.73;9.77;;;;;;;;;;5051458;28;20060;-63
2021/12/26 01:51:34;;;;;;;16.65;8.88;;;;;;;;;;5051810;28;20053;-63
2021/12/26 01:54:05;;;;;;;17.65;9.18;;;;;;;;;;5051737;28;20410;-63
2021/12/26 01:56:34;;;;;;;19.50;9.85;;;;;;;;;;5052041;28;20429;-64
2021/12/26 01:59:02;;;;;;;18.33;9.35;;;;;;;;;;5051294;28;20509;-63
2021/12/26 02:01:29;;;;;;;17.27;9.63;;;;;;;;;;5051876;28;20053;-63
2021/12/26 02:03:56;;;;;;;18.08;9.30;;;;;;;;;;5051756;28;20068;-63
2021/12/26 02:06:23;;;;;;;19.55;9.75;;;;;;;;;;5051670;28;20049;-63
2021/12/26 02:08:50;;;;;;;19.13;10.02;;;;;;;;;;5051369;28;20414;-63
2021/12/26 02:11:18;;;;;;;20.67;10.18;;;;;;;;;;5051698;28;20049;-63
2021/12/26 02:13:46;;;;;;;18.70;9.63;;;;;;;;;;5051383;28;20045;-63
2021/12/26 02:16:14;;;;;;;17.58;9.55;;;;;;;;;;5051623;28;20509;-63
2021/12/26 02:18:42;;;;;;;16.48;9.02;;;;;;;;;;5051313;28;20059;-63
2021/12/26 02:21:29;;;;;;;18.75;9.32;;;;;;;;;;5053188;28;20049;-63
2021/12/26 02:24:08;;;;;;;17.35;9.95;;;;;;;;;;5055342;28;20532;-63
2021/12/26 02:29:19;;;;;;;16.65;9.07;;;;;;;;;;5055006;28;20083;-63
2021/12/26 02:31:46;;;;;;;15.52;8.30;;;;;;;;;;5055112;28;20049;-63
2021/12/26 02:34:13;;;;;;;13.88;8.13;;;;;;;;;;5055146;28;20057;-63
2021/12/26 02:36:42;;;;;;;12.80;7.90;;;;;;;;;;5054984;28;20204;-63
2021/12/26 02:39:08;;;;;;;14.30;8.00;;;;;;;;;;5054735;28;20051;-63
2021/12/26 02:41:36;;;;;;;13.38;7.53;;;;;;;;;;5055287;28;20418;-63
2021/12/26 02:44:03;;;;;;;12.63;7.50;;;;;;;;;;5054866;28;20055;-63
2021/12/26 02:46:30;;;;;;;14.52;8.32;;;;;;;;;;5054940;28;20052;-63
2021/12/26 02:48:57;;;;;;;14.45;8.38;;;;;;;;;;5054588;28;20056;-63
2021/12/26 02:51:24;;;;;;;13.68;8.02;;;;;;;;;;5054650;28;20410;-63
2021/12/26 02:53:52;;;;;;;14.88;8.35;;;;;;;;;;5054868;28;20045;-63
2021/12/26 02:56:19;;;;;;;14.35;7.32;;;;;;;;;;5054869;28;20049;-63
2021/12/26 03:01:29;;;;;;;12.65;7.40;;;;;;;;;;5033068;28;20096;-60
2021/12/26 03:03:55;;;;;;;12.63;7.18;;;;;;;;;;5035160;28;20046;-60
2021/12/26 03:06:28;;;;;;;13.13;7.10;;;;;;;;;;5034856;28;20056;-61
2021/12/26 03:08:57;;;;;;;11.65;7.22;;;;;;;;;;5034826;28;20054;-61
2021/12/26 03:11:24;;;;;;;12.75;7.28;;;;;;;;;;5034934;28;20080;-61
2021/12/26 03:13:51;;;;;;;14.77;7.88;;;;;;;;;;5034405;28;20077;-61
2021/12/26 03:16:18;;;;;;;14.38;7.65;;;;;;;;;;5034412;28;20417;-61
2021/12/26 03:18:45;;;;;;;13.70;7.25;;;;;;;;;;5034357;28;20410;-61
2021/12/26 03:21:12;;;;;;;13.35;7.47;;;;;;;;;;5034577;28;20053;-60
2021/12/26 03:23:39;;;;;;;12.20;7.78;;;;;;;;;;5034232;28;20049;-61
2021/12/26 03:26:08;;;;;;;12.35;6.82;;;;;;;;;;5034237;28;20053;-61
2021/12/26 03:28:35;;;;;;;13.70;8.13;;;;;;;;;;5034195;28;20049;-61
2021/12/26 03:31:02;;;;;;;13.90;7.72;;;;;;;;;;5033692;28;20046;-60
2021/12/26 03:33:30;;;;;;;14.60;7.97;;;;;;;;;;5034396;28;20056;-61
2021/12/26 03:35:57;;;;;;;13.55;7.82;;;;;;;;;;5034384;28;20104;-62
2021/12/26 03:38:25;;;;;;;13.13;7.47;;;;;;;;;;5034106;28;20410;-61
2021/12/26 03:40:55;;;;;;;13.38;7.88;;;;;;;;;;5034023;28;20068;-61
2021/12/26 03:43:24;;;;;;;14.50;7.63;;;;;;;;;;5034148;28;20165;-61
2021/12/26 03:45:53;;;;;;;15.68;8.23;;;;;;;;;;5034248;28;20061;-61
2021/12/26 03:48:22;;;;;;;14.13;8.25;;;;;;;;;;5033836;28;20061;-61
2021/12/26 03:50:49;;;;;;;14.07;7.57;;;;;;;;;;5033872;28;20483;-60
2021/12/26 03:53:17;;;;;;;13.57;7.85;;;;;;;;;;5033723;28;20053;-61
2021/12/26 03:55:44;;;;;;;14.07;8.23;;;;;;;;;;5033637;28;20052;-61
2021/12/26 03:58:11;;;;;;;16.63;8.50;;;;;;;;;;5033621;28;20053;-61
2021/12/26 04:00:41;;;;;;;15.98;9.35;;;;;;;;;;5033476;28;20053;-60
2021/12/26 04:03:08;;;;;;;15.40;7.85;;;;;;;;;;5033424;28;20053;-61
2021/12/26 04:05:35;;;;;;;15.13;8.43;;;;;;;;;;5033506;28;20060;-61
2021/12/26 04:08:03;;;;;;;15.15;7.82;;;;;;;;;;5033424;28;20049;-61
2021/12/26 04:10:30;;;;;;;14.00;8.23;;;;;;;;;;5033397;28;20050;-61
2021/12/26 04:12:58;;;;;;;14.75;8.55;;;;;;;;;;5033476;28;20388;-62
2021/12/26 04:15:27;;;;;;;14.88;8.23;;;;;;;;;;5033366;28;20510;-62
2021/12/26 04:17:57;;;;;;;14.30;7.93;;;;;;;;;;5033633;28;20137;-61
2021/12/26 04:20:24;;;;;;;14.65;7.93;;;;;;;;;;5033444;28;20410;-61
2021/12/26 04:22:51;;;;;;;13.23;7.65;;;;;;;;;;5033393;28;20068;-61
2021/12/26 04:25:20;;;;;;;13.75;7.50;;;;;;;;;;5033132;28;20049;-61
2021/12/26 04:27:47;;;;;;;15.82;7.72;;;;;;;;;;5033184;28;20056;-61
2021/12/26 04:30:16;;;;;;;12.68;7.38;;;;;;;;;;5033094;28;20045;-61
2021/12/26 04:32:43;;;;;;;12.75;7.70;;;;;;;;;;5032807;28;20398;-59
2021/12/26 04:35:12;;;;;;;15.98;8.68;;;;;;;;;;5033032;28;20056;-57
2021/12/26 04:37:38;;;;;;;14.07;8.18;;;;;;;;;;5032728;28;20049;-60
2021/12/26 04:40:08;;;;;;;14.10;7.97;;;;;;;;;;5032920;28;20491;-60
2021/12/26 04:42:37;;;;;;;14.23;8.02;;;;;;;;;;5032356;28;20053;-58
2021/12/26 04:45:05;;;;;;;13.75;7.55;;;;;;;;;;5032756;28;20075;-58
2021/12/26 04:47:32;;;;;;;13.32;6.93;;;;;;;;;;5032558;28;20061;-57
2021/12/26 04:49:59;;;;;;;15.43;7.97;;;;;;;;;;5032647;28;20634;-55
2021/12/26 04:52:27;;;;;;;12.80;7.68;;;;;;;;;;5032537;28;20049;-59
2021/12/26 04:54:54;;;;;;;14.40;7.38;;;;;;;;;;5032838;28;20053;-60
2021/12/26 04:57:21;;;;;;;14.32;8.05;;;;;;;;;;5032770;28;20083;-59
2021/12/26 04:59:48;;;;;;;14.30;7.95;;;;;;;;;;5032210;28;20057;-58
2021/12/26 05:02:15;;;;;;;13.45;7.38;;;;;;;;;;5032834;28;20060;-58
2021/12/26 05:04:42;;;;;;;14.68;7.68;;;;;;;;;;5032404;28;20052;-58
2021/12/26 05:07:09;;;;;;;16.13;7.75;;;;;;;;;;5032416;28;20056;-56
2021/12/26 05:09:38;;;;;;;14.38;7.78;;;;;;;;;;5032378;28;20049;-56
2021/12/26 05:12:05;;;;;;;15.70;7.25;;;;;;;;;;5032411;28;20057;-59
2021/12/26 05:14:32;;;;;;;12.50;7.53;;;;;;;;;;5032298;28;20057;-57
2021/12/26 05:16:59;;;;;;;16.38;7.88;;;;;;;;;;5032169;28;20053;-59
2021/12/26 05:19:26;;;;;;;13.68;8.10;;;;;;;;;;5032009;28;20057;-60
2021/12/26 05:21:53;;;;;;;14.90;8.40;;;;;;;;;;5032294;28;20045;-57
2021/12/26 05:24:20;;;;;;;15.40;7.85;;;;;;;;;;5032200;28;20422;-59
2021/12/26 05:26:48;;;;;;;15.50;8.20;;;;;;;;;;5032392;28;20053;-59
2021/12/26 05:29:15;;;;;;;13.98;7.25;;;;;;;;;;5032035;28;20049;-59
2021/12/26 05:31:42;;;;;;;16.25;7.97;;;;;;;;;;5031892;28;20068;-56
2021/12/26 05:34:09;;;;;;;17.58;7.90;;;;;;;;;;5031891;28;20050;-58
2021/12/26 05:36:36;;;;;;;15.30;8.27;;;;;;;;;;5032212;28;20049;-58
2021/12/26 05:39:03;;;;;;;14.98;7.82;;;;;;;;;;5031802;28;20391;-57
2021/12/26 05:41:32;;;;;;;18.10;9.07;;;;;;;;;;5031971;28;20046;-57
2021/12/26 05:44:01;;;;;;;16.98;8.70;;;;;;;;;;5031964;28;20045;-60
2021/12/26 05:46:28;;;;;;;20.75;9.18;;;;;;;;;;5031887;28;20136;-59
2021/12/26 05:48:55;;;;;;;16.42;8.82;;;;;;;;;;5032250;28;20076;-59
2021/12/26 05:51:21;;;;;;;19.08;9.07;;;;;;;;;;5031974;28;20517;-59
2021/12/26 05:53:48;;;;;;;19.25;9.15;;;;;;;;;;5031783;28;20042;-59
2021/12/26 05:56:15;;;;;;;16.38;8.63;;;;;;;;;;5035697;28;20379;-58
2021/12/26 05:58:42;;;;;;;18.17;8.52;;;;;;;;;;5035794;28;20057;-59
2021/12/26 06:01:11;;;;;;;21.17;10.15;;;;;;;;;;5035600;28;20046;-59
2021/12/26 06:03:38;;;;;;;18.83;8.57;;;;;;;;;;5035755;28;20290;-57
2021/12/26 06:06:05;;;;;;;17.42;8.80;;;;;;;;;;5035938;28;20518;-58
2021/12/26 06:08:32;;;;;;;20.13;9.30;;;;;;;;;;5035371;28;20060;-60
2021/12/26 06:10:59;;;;;;;17.23;9.15;;;;;;;;;;5035887;28;20046;-58
2021/12/26 06:13:26;;;;;;;17.25;8.02;;;;;;;;;;5035328;28;20050;-59
2021/12/26 06:15:54;;;;;;;16.45;8.63;;;;;;;;;;5035883;28;20045;-58
2021/12/26 06:18:22;;;;;;;18.80;9.13;;;;;;;;;;5035340;28;20053;-59
2021/12/26 06:20:49;;;;;;;16.38;7.90;;;;;;;;;;5035757;28;20445;-59
2021/12/26 06:23:16;;;;;;;15.05;8.48;;;;;;;;;;5035424;28;20062;-54
2021/12/26 06:25:43;;;;;;;18.63;8.45;;;;;;;;;;5035620;28;20049;-58
2021/12/26 06:28:10;;;;;;;21.88;9.13;;;;;;;;;;5035128;28;20060;-58
2021/12/26 06:30:37;;;;;;;15.23;7.68;;;;;;;;;;5035465;28;20060;-59
2021/12/26 06:33:04;;;;;;;16.08;8.05;;;;;;;;;;5035315;28;20068;-58
2021/12/26 06:35:33;;;;;;;20.63;9.00;;;;;;;;;;5035325;28;20049;-57
2021/12/26 06:38:00;;;;;;;17.10;8.27;;;;;;;;;;5034933;28;20049;-59
2021/12/26 06:40:26;;;;;;;17.38;9.00;;;;;;;;;;5034964;28;20410;-58
2021/12/26 06:42:53;;;;;;;16.92;8.30;;;;;;;;;;5035782;28;20045;-56
2021/12/26 06:45:21;;;;;;;16.50;7.63;;;;;;;;;;5036430;28;20046;-59
2021/12/26 06:47:50;;;;;;;16.55;8.73;;;;;;;;;;5035329;28;20124;-59
2021/12/26 06:50:17;;;;;;;20.80;8.75;;;;;;;;;;5036026;28;20081;-56
2021/12/26 06:52:46;;;;;;;19.23;8.32;;;;;;;;;;5036190;28;20049;-59
2021/12/26 06:55:13;;;;;;;17.42;8.90;;;;;;;;;;5035990;28;20089;-56
2021/12/26 06:57:41;;;;;;;17.33;8.27;;;;;;;;;;5036066;28;20056;-59
2021/12/26 07:00:10;;;;;;;17.20;8.35;;;;;;;;;;5035812;28;20411;-57
2021/12/26 07:02:37;;;;;;;17.73;9.18;;;;;;;;;;5035603;28;20060;-58
2021/12/26 07:05:05;;;;;;;18.88;8.00;;;;;;;;;;5035097;28;20057;-54
2021/12/26 07:07:32;;;;;;;17.35;8.90;;;;;;;;;;5034722;28;20050;-59
2021/12/26 07:10:00;;;;;;;17.90;8.77;;;;;;;;;;5035600;28;20050;-55
2021/12/26 07:12:27;;;;;;;17.15;8.68;;;;;;;;;;5035813;28;20414;-59
2021/12/26 07:14:54;;;;;;;17.85;7.72;;;;;;;;;;5035724;28;20060;-54
2021/12/26 07:17:21;;;;;;;17.90;8.40;;;;;;;;;;5035637;28;20050;-56
2021/12/26 07:19:48;;;;;;;18.20;8.18;;;;;;;;;;5035373;28;20137;-59
2021/12/26 07:22:15;;;;;;;20.55;8.85;;;;;;;;;;5035064;28;20083;-59
2021/12/26 07:24:43;;;;;;;17.65;8.52;;;;;;;;;;5034911;28;20565;-58
2021/12/26 07:27:12;;;;;;;18.00;8.40;;;;;;;;;;5035138;28;20045;-57
2021/12/26 07:29:40;;;;;;;25.88;14.15;;;;;;;;;;5035580;28;20466;-56
2021/12/26 07:32:08;;;;;;;24.17;11.50;;;;;;;;;;5035230;28;20049;-55
2021/12/26 07:34:35;;;;;;;20.67;10.65;;;;;;;;;;5034541;28;20136;-59
2021/12/26 07:37:02;;;;;;;19.45;10.45;;;;;;;;;;5035031;28;20505;-59
2021/12/26 07:39:29;;;;;;;23.85;11.20;;;;;;;;;;5035105;28;20055;-57
2021/12/26 07:41:56;;;;;;;17.98;9.48;;;;;;;;;;5035019;28;20052;-57
2021/12/26 07:44:24;;;;;;;15.00;7.82;;;;;;;;;;5035090;28;20068;-54
2021/12/26 07:46:52;;;;;;;15.55;7.97;;;;;;;;;;5034963;28;20060;-58
2021/12/26 07:49:19;;;;;;;16.73;7.82;;;;;;;;;;5034334;28;20409;-57
2021/12/26 07:51:48;;;;;;;18.17;8.20;;;;;;;;;;5034961;28;20050;-60
2021/12/26 07:54:16;;;;;;;17.10;8.73;;;;;;;;;;5034900;28;20053;-59
2021/12/26 07:56:43;;;;;;;15.55;7.82;;;;;;;;;;5035044;28;20411;-60
2021/12/26 07:59:11;;;;;;;15.88;7.95;;;;;;;;;;5034631;28;20084;-58
2021/12/26 08:01:41;;;;;;;16.13;8.75;;;;;;;;;;5034932;28;20057;-61
2021/12/26 08:04:09;;;;;;;19.23;9.88;;;;;;;;;;5034805;28;20509;-60
2021/12/26 08:06:36;;;;;;;15.95;7.72;;;;;;;;;;5034247;28;20057;-56
2021/12/26 08:09:04;;;;;;;20.70;9.73;;;;;;;;;;5034426;28;20498;-59
2021/12/26 08:11:31;;;;;;;16.33;8.15;;;;;;;;;;5034706;28;20081;-58
2021/12/26 08:13:58;;;;;;;16.00;8.20;;;;;;;;;;5034732;28;20053;-55
2021/12/26 08:16:26;;;;;;;15.13;7.88;;;;;;;;;;5034558;28;20053;-59
2021/12/26 08:18:55;;;;;;;16.55;8.70;;;;;;;;;;5034855;28;20057;-57
2021/12/26 08:21:23;;;;;;;15.13;8.27;;;;;;;;;;5034372;28;20053;-57
2021/12/26 08:23:50;;;;;;;14.90;7.68;;;;;;;;;;5034313;28;20140;-58
2021/12/26 08:26:17;;;;;;;17.08;8.68;;;;;;;;;;5034255;28;20410;-55
2021/12/26 08:28:44;;;;;;;14.20;7.35;;;;;;;;;;5034235;28;20112;-59
2021/12/26 08:31:11;;;;;;;14.18;6.70;;;;;;;;;;5036329;28;20051;-59
2021/12/26 08:33:38;;;;;;;14.02;7.45;;;;;;;;;;5034336;28;20049;-60
2021/12/26 08:36:07;;;;;;;14.45;7.57;;;;;;;;;;5037142;28;20053;-59
2021/12/26 08:38:34;;;;;;;12.77;6.85;;;;;;;;;;5034438;28;20418;-61
2021/12/26 08:41:02;;;;;;;15.45;7.05;;;;;;;;;;5034192;28;20056;-61
2021/12/26 08:43:29;;;;;;;18.55;8.02;;;;;;;;;;5033283;28;20081;-61
2021/12/26 08:45:56;;;;;;;14.57;7.80;;;;;;;;;;5034377;28;20417;-58
2021/12/26 08:48:24;;;;;;;14.65;6.82;;;;;;;;;;5034070;28;20057;-60
2021/12/26 08:50:55;;;;;;;17.05;7.22;;;;;;;;;;5033679;28;20053;-61
2021/12/26 08:53:24;;;;;;;14.93;7.20;;;;;;;;;;5033676;28;20414;-60
2021/12/26 08:55:52;;;;;;;14.57;7.60;;;;;;;;;;5032979;28;20462;-61
2021/12/26 08:58:19;;;;;;;15.88;7.90;;;;;;;;;;5032977;28;20476;-61
2021/12/26 09:00:47;;;;;;;12.93;6.63;;;;;;;;;;5062516;22;20033;-59
2021/12/26 09:03:14;;;;;;;16.25;7.30;;;;;;;;;;5032505;28;20532;-60
2021/12/26 09:05:41;;;;;;;13.70;7.00;;;;;;;;;;5032566;28;20049;-61
2021/12/26 09:08:10;;;;;;;13.57;7.65;;;;;;;;;;5032224;28;20486;-61
2021/12/26 09:10:39;;;;;;;17.58;8.55;;;;;;;;;;5032498;28;20597;-61
2021/12/26 09:13:06;;;;;;;17.70;8.50;;;;;;;;;;5032282;28;20056;-61
2021/12/26 09:15:33;;;;;;;13.68;6.43;;;;;;;;;;5032289;28;20060;-61
2021/12/26 09:18:00;;;;;;;13.15;6.85;;;;;;;;;;5032027;28;20045;-61
2021/12/26 09:20:28;;;;;;;13.60;7.18;;;;;;;;;;5032290;28;20378;-61
2021/12/26 09:22:55;;;;;;;24.38;13.20;;;;;;;;;;5032249;28;20049;-61
2021/12/26 09:25:22;;;;;;;15.88;7.80;;;;;;;;;;5032514;28;20406;-61
2021/12/26 09:27:50;;;;;;;27.73;13.27;;;;;;;;;;5031875;28;20064;-61
2021/12/26 09:30:17;;;;;;;21.00;10.45;;;;;;;;;;5031695;28;20064;-61
2021/12/26 09:32:44;;;;;;;19.42;9.57;;;;;;;;;;5032111;28;20054;-61
2021/12/26 09:35:12;;;;;;;16.88;8.13;;;;;;;;;;5032122;28;20064;-61
2021/12/26 09:37:39;;;;;;;14.60;6.88;;;;;;;;;;5031880;28;20054;-61
2021/12/26 09:40:07;;;;;;;18.73;10.38;;;;;;;;;;5031936;28;20045;-60
2021/12/26 09:42:35;;;;;;;44.85;22.88;;;;;;;;;;5031939;28;20054;-60
2021/12/26 09:45:04;;;;;;;17.65;8.30;;;;;;;;;;5031848;28;20053;-61
2021/12/26 09:47:31;;;;;;;13.95;7.28;;;;;;;;;;5031773;28;20060;-61
2021/12/26 09:49:58;;;;;;;15.13;7.03;;;;;;;;;;5031747;28;20060;-61
2021/12/26 09:52:25;;;;;;;13.00;7.07;;;;;;;;;;5032023;28;20046;-61
2021/12/26 09:54:52;;;;;;;12.40;6.78;;;;;;;;;;5031855;28;20050;-61
2021/12/26 09:57:19;;;;;;;14.50;6.88;;;;;;;;;;5031818;28;20084;-61
2021/12/26 09:59:48;;;;;;;17.05;8.18;;;;;;;;;;5031668;28;20053;-62
2021/12/26 10:02:18;;;;;;;18.33;9.70;;;;;;;;;;5031887;28;20147;-61
2021/12/26 10:04:46;;;;;;;14.95;7.60;;;;;;;;;;5031682;28;20053;-62
2021/12/26 10:07:16;;;;;;;13.38;7.25;;;;;;;;;;5031770;28;20104;-62
2021/12/26 10:09:45;;;;;;;13.95;7.70;;;;;;;;;;5031611;28;20061;-61
2021/12/26 10:12:14;;;;;;;15.18;7.20;;;;;;;;;;5031975;28;20418;-62
2021/12/26 10:14:43;;;;;;;13.23;6.47;;;;;;;;;;5031903;28;20053;-62
2021/12/26 10:17:12;;;;;;;14.02;6.95;;;;;;;;;;5031656;28;20099;-63
2021/12/26 10:19:44;;;;;;;13.68;7.40;;;;;;;;;;5031563;28;20054;-62
2021/12/26 10:22:13;;;;;;;19.92;10.45;;;;;;;;;;5031566;28;20053;-62
2021/12/26 10:24:42;;;;;;;15.15;8.25;;;;;;;;;;5031677;28;20054;-61
2021/12/26 10:27:12;;;;;;;11.25;6.88;;;;;;;;;;5031787;28;20117;-61
2021/12/26 10:29:40;;;;;;;13.43;6.65;;;;;;;;;;5031350;28;20049;-61
2021/12/26 10:32:09;;;;;;;12.52;7.18;;;;;;;;;;5031769;28;20084;-62
2021/12/26 10:34:42;;;;;;;12.02;6.72;;;;;;;;;;5031635;28;20490;-61
2021/12/26 10:37:13;;;;;;;13.63;7.10;;;;;;;;;;5032121;28;20491;-61
2021/12/26 10:39:43;;;;;;;14.60;7.53;;;;;;;;;;5031452;28;20443;-63
2021/12/26 10:42:13;;;;;;;15.07;7.60;;;;;;;;;;5033229;28;20061;-61
2021/12/26 10:44:43;;;;;;;13.23;6.60;;;;;;;;;;5035441;28;20144;-61
2021/12/26 10:47:12;;;;;;;14.45;6.75;;;;;;;;;;5035201;28;20503;-61
2021/12/26 10:49:48;;;;;;;14.20;7.38;;;;;;;;;;5034937;28;20046;-61
2021/12/26 10:52:22;;;;;;;13.73;6.97;;;;;;;;;;5035392;28;20068;-61
2021/12/26 10:54:52;;;;;;;15.77;7.25;;;;;;;;;;5035311;28;20466;-62
2021/12/26 10:57:22;;;;;;;13.05;6.68;;;;;;;;;;5035368;28;20049;-59
2021/12/26 11:00:15;;;;;;;13.20;6.57;;;;;;;;;;5034693;28;20041;-61
2021/12/26 11:02:46;;;;;;;14.27;7.43;;;;;;;;;;5035164;28;20059;-61
2021/12/26 11:05:18;;;;;;;13.82;7.15;;;;;;;;;;5035446;28;20060;-61
2021/12/26 11:07:51;;;;;;;15.80;7.53;;;;;;;;;;5035271;28;20057;-60
2021/12/26 11:10:22;;;;;;;15.73;7.38;;;;;;;;;;5034794;28;20490;-61
2021/12/26 11:12:51;;;;;;;15.27;7.65;;;;;;;;;;5035010;28;20056;-61
2021/12/26 11:15:19;;;;;;;12.07;6.45;;;;;;;;;;5034561;28;20050;-61
2021/12/26 11:17:50;;;;;;;14.15;7.07;;;;;;;;;;5034372;28;20056;-62
2021/12/26 11:20:28;;;;;;;13.10;7.05;;;;;;;;;;5035188;28;20129;-62
2021/12/26 11:22:55;;;;;;;14.98;7.75;;;;;;;;;;5034876;28;20061;-61
2021/12/26 11:25:24;;;;;;;13.13;7.03;;;;;;;;;;5034535;28;20059;-62
2021/12/26 11:27:51;;;;;;;13.43;6.88;;;;;;;;;;5034480;28;20042;-62
2021/12/26 11:30:19;;;;;;;12.75;6.95;;;;;;;;;;5034508;28;20045;-62
2021/12/26 11:32:46;;;;;;;14.10;7.35;;;;;;;;;;5034798;28;20137;-62
2021/12/26 11:35:13;;;;;;;13.38;7.40;;;;;;;;;;5035170;28;20052;-62
2021/12/26 11:37:42;;;;;;;13.18;7.47;;;;;;;;;;5034794;28;20053;-61
2021/12/26 11:40:13;;;;;;;12.95;6.75;;;;;;;;;;5034817;28;20136;-61
2021/12/26 11:43:09;;;;;;;12.77;7.10;;;;;;;;;;5034765;28;20045;-60
2021/12/26 11:45:43;;;;;;;12.55;6.60;;;;;;;;;;5034529;28;20049;-62
2021/12/26 11:49:00;;;;;;;12.73;6.93;;;;;;;;;;5034845;28;20049;-62
2021/12/26 11:51:49;;;;;;;13.98;7.28;;;;;;;;;;4991204;28;20085;-62
2021/12/26 11:54:48;;;;;;;14.45;7.07;;;;;;;;;;4992490;28;20133;-62
2021/12/26 11:57:35;;;;;;;11.98;6.25;;;;;;;;;;5021181;28;20107;-62
2021/12/26 12:00:10;;;;;;;11.98;5.93;;;;;;;;;;5034371;28;20422;-62
2021/12/26 12:02:41;;;;;;;12.55;6.50;;;;;;;;;;5034534;28;20461;-62
2021/12/26 12:05:11;;;;;;;13.00;7.90;;;;;;;;;;5034512;28;20053;-62
2021/12/26 12:07:46;;;;;;;13.25;6.65;;;;;;;;;;5033630;28;20049;-62
2021/12/26 12:10:38;;;;;;;11.95;6.15;;;;;;;;;;5034061;28;20058;-62
2021/12/26 12:13:07;;;;;;;11.48;6.07;;;;;;;;;;5034026;28;20438;-62
2021/12/26 12:15:49;;;;;;;27.75;15.40;;;;;;;;;;5033646;28;20053;-61
2021/12/26 12:18:19;;;;;;;33.80;19.10;;;;;;;;;;5033639;28;20061;-62
2021/12/26 12:20:46;;;;;;;24.52;12.35;;;;;;;;;;5033851;28;20057;-62
2021/12/26 12:23:17;;;;;;;16.90;7.53;;;;;;;;;;5034234;28;20063;-61
2021/12/26 12:25:52;;;;;;;;;;;;;;;;;;5034466;28;20066;-62
2021/12/26 12:28:27;;;;;;;38.42;20.95;;;;;;;;;;5033253;28;19921;-62
2021/12/26 12:30:57;;;;;;;19.27;10.07;;;;;;;;;;5033739;28;20053;-61
2021/12/26 12:33:28;;;;;;;16.33;8.75;;;;;;;;;;5033531;28;20407;-62
2021/12/26 12:35:59;;;;;;;14.90;7.43;;;;;;;;;;5033379;28;20056;-62
2021/12/26 12:38:39;;;;;;;15.65;7.65;;;;;;;;;;5033505;28;20045;-62
2021/12/26 12:41:10;;;;;;;16.88;8.57;;;;;;;;;;5033440;28;20095;-62
2021/12/26 12:43:47;;;;;;;16.80;8.90;;;;;;;;;;5034109;28;20123;-62
2021/12/26 12:46:15;;;;;;;19.42;9.52;;;;;;;;;;5033393;28;20049;-62
2021/12/26 12:49:05;;;;;;;18.13;9.82;;;;;;;;;;5033349;28;20541;-62
2021/12/26 12:51:42;;;;;;;15.40;9.13;;;;;;;;;;5033393;28;20375;-62
2021/12/26 12:54:21;;;;;;;17.15;8.38;;;;;;;;;;5033774;28;20475;-62
2021/12/26 12:56:49;;;;;;;17.42;9.68;;;;;;;;;;5033373;28;20464;-61
2021/12/26 12:59:38;;;;;;;17.77;8.77;;;;;;;;;;5032985;28;20049;-61
2021/12/26 13:02:10;;;;;;;18.33;9.43;;;;;;;;;;5033301;28;20053;-62
2021/12/26 13:04:45;;;;;;;19.25;9.85;;;;;;;;;;5032529;28;20131;-62
2021/12/26 13:07:17;;;;;;;23.17;10.80;;;;;;;;;;5033040;28;20067;-62
2021/12/26 13:09:48;;;;;;;21.35;10.88;;;;;;;;;;5032760;28;20072;-62
2021/12/26 13:12:16;;;;;;;17.85;9.00;;;;;;;;;;5032853;28;20546;-62
2021/12/26 13:14:47;;;;;;;19.85;9.75;;;;;;;;;;5033052;28;20057;-61
2021/12/26 13:17:15;;;;;;;51.13;28.00;;;;;;;;;;5033138;28;20498;-61
2021/12/26 13:19:43;;;;;;;24.83;12.57;;;;;;;;;;5032760;28;20537;-62
2021/12/26 13:22:10;;;;;;;21.27;10.98;;;;;;;;;;5033006;28;20054;-62
2021/12/26 13:24:41;;;;;;;32.75;16.92;;;;;;;;;;5032444;28;20517;-62
2021/12/26 13:27:09;;;;;;;37.40;18.65;;;;;;;;;;5032904;28;20053;-61
2021/12/26 13:29:36;;;;;;;22.63;10.77;;;;;;;;;;5032513;28;20410;-60
2021/12/26 13:32:05;;;;;;;20.00;11.07;;;;;;;;;;5032746;28;20056;-62
2021/12/26 13:34:32;;;;;;;20.95;10.40;;;;;;;;;;5033055;28;20054;-62
2021/12/26 13:37:01;;;;;;;20.27;10.77;;;;;;;;;;5032701;28;20577;-62
2021/12/26 13:39:29;;;;;;;20.58;10.32;;;;;;;;;;5032605;28;20148;-62
2021/12/26 13:41:56;;;;;;;20.17;11.15;;;;;;;;;;5032686;28;20072;-60
2021/12/26 13:44:23;;;;;;;22.10;10.77;;;;;;;;;;5032860;28;20059;-62
2021/12/26 13:46:59;;;;;;;23.67;13.23;;;;;;;;;;5032807;28;20049;-61
2021/12/26 13:49:27;;;;;;;20.70;11.10;;;;;;;;;;5032387;28;20547;-61
2021/12/26 13:51:56;;;;;;;21.77;11.63;;;;;;;;;;5032398;28;20052;-62
2021/12/26 13:54:26;;;;;;;22.00;10.80;;;;;;;;;;5032890;28;20060;-62
2021/12/26 13:56:56;;;;;;;20.65;11.27;;;;;;;;;;5032611;28;20144;-62
2021/12/26 13:59:36;;;;;;;21.70;11.65;;;;;;;;;;5032332;28;20057;-63
2021/12/26 14:02:06;;;;;;;23.50;11.30;;;;;;;;;;5032286;28;20064;-62
2021/12/26 14:04:39;;;;;;;22.33;11.05;;;;;;;;;;5032996;28;20410;-61
2021/12/26 14:07:08;;;;;;;22.67;12.25;;;;;;;;;;5032470;28;20061;-60
2021/12/26 14:09:41;;;;;;;20.65;11.55;;;;;;;;;;5032080;28;20056;-60
2021/12/26 14:12:09;;;;;;;22.67;11.55;;;;;;;;;;5032443;28;20055;-61
2021/12/26 14:14:39;;;;;;;20.38;10.43;;;;;;;;;;5032865;28;20076;-61
2021/12/26 14:17:08;;;;;;;22.38;10.75;;;;;;;;;;5036379;28;20494;-60
2021/12/26 14:19:37;;;;;;;27.90;14.70;;;;;;;;;;5036986;28;20053;-61
2021/12/26 14:22:04;;;;;;;22.60;11.32;;;;;;;;;;5036669;28;20049;-61
2021/12/26 14:24:33;;;;;;;31.85;17.23;;;;;;;;;;5036532;28;20057;-62
2021/12/26 14:27:00;;;;;;;28.70;16.20;;;;;;;;;;5036320;28;20045;-62
2021/12/26 14:29:27;;;;;;;22.27;12.32;;;;;;;;;;5035997;28;20414;-62
2021/12/26 14:31:55;;;;;;;30.35;14.50;;;;;;;;;;5036344;28;20127;-61
2021/12/26 14:34:25;;;;;;;24.80;12.73;;;;;;;;;;5036161;28;20132;-61
2021/12/26 14:36:56;;;;;;;28.13;12.90;;;;;;;;;;5036304;28;20045;-61
2021/12/26 14:39:29;;;;;;;24.48;13.15;;;;;;;;;;5036298;28;20041;-61
2021/12/26 14:41:57;;;;;;;24.02;12.45;;;;;;;;;;5036342;28;20064;-62
2021/12/26 14:44:27;;;;;;;27.70;12.20;;;;;;;;;;5035956;28;20487;-61